Time;durP1;ratioP1;P1;durP2;ratioP2;P2;SDS_P1;SDS_P2;PMS_P1;PMS_P2;Temp;Humidity;BMP_temperature;BMP_pressure;BME280_temperature;BME280_humidity;BME280_pressure;Samples;Min_cycle;Max_cycle;Signal;HPM_P1;HPM_P2
2022/09/04 00:02:04;;;;;;;4.85;1.95;;;18.60;59.10;;;;;;4953749;29;20042;-70
2022/09/04 00:04:43;;;;;;;3.05;1.73;;;18.60;59.00;;;;;;4954581;28;20079;-72
2022/09/04 00:07:22;;;;;;;6.03;1.92;;;18.50;59.30;;;;;;4954985;28;20059;-72
2022/09/04 00:10:10;;;;;;;5.32;2.97;;;18.60;59.10;;;;;;4954836;28;20043;-71
2022/09/04 00:13:01;;;;;;;3.97;1.60;;;18.60;59.20;;;;;;4969557;28;20054;-71
2022/09/04 00:15:33;;;;;;;4.80;1.77;;;18.50;59.00;;;;;;4943801;28;20098;-70
2022/09/04 00:18:25;;;;;;;4.25;1.70;;;18.50;59.40;;;;;;4954124;28;20035;-71
2022/09/04 00:21:28;;;;;;;3.33;1.73;;;18.30;59.90;;;;;;4951048;28;20111;-71
2022/09/04 00:24:33;;;;;;;6.47;1.75;;;18.30;60.10;;;;;;4953993;28;20034;-71
2022/09/04 00:27:09;;;;;;;2.45;1.58;;;18.30;59.80;;;;;;4950598;28;20110;-70
2022/09/04 00:29:47;;;;;;;4.25;1.52;;;18.40;59.70;;;;;;4954201;28;20030;-69
2022/09/04 00:32:28;;;;;;;6.93;1.80;;;18.30;60.00;;;;;;4954243;28;20479;-70
2022/09/04 00:35:13;;;;;;;6.22;1.80;;;18.30;60.00;;;;;;4953928;29;20214;-70
2022/09/04 00:37:48;;;;;;;6.63;1.88;;;18.30;60.30;;;;;;4953299;28;20027;-70
2022/09/04 00:40:25;;;;;;;2.42;1.55;;;18.20;60.50;;;;;;4953685;28;20090;-70
2022/09/04 00:43:05;;;;;;;3.03;1.60;;;18.20;60.30;;;;;;4953607;28;20068;-70
2022/09/04 00:46:05;;;;;;;4.43;1.83;;;18.20;59.90;;;;;;4953694;28;20130;-71
2022/09/04 00:48:53;;;;;;;2.85;1.50;;;18.20;60.20;;;;;;4953497;28;20059;-69
2022/09/04 00:51:57;;;;;;;5.63;1.98;;;18.10;60.70;;;;;;4968460;28;20040;-69
2022/09/04 00:55:07;;;;;;;4.32;1.75;;;18.10;60.80;;;;;;4945352;28;20031;-70
2022/09/04 00:57:59;;;;;;;4.03;1.70;;;18.00;61.30;;;;;;4946346;28;20050;-71
2022/09/04 01:00:26;;;;;;;6.20;1.77;;;17.90;62.30;;;;;;4953553;28;20043;-70
2022/09/04 01:03:17;;;;;;;4.32;1.80;;;17.90;61.30;;;;;;4953262;28;20047;-70
2022/09/04 01:06:08;;;;;;;6.45;2.10;;;18.00;61.50;;;;;;4953475;28;20054;-70
2022/09/04 01:08:54;;;;;;;2.90;1.77;;;18.00;61.30;;;;;;4968496;28;20027;-70
2022/09/04 01:11:40;;;;;;;3.47;1.77;;;18.00;61.40;;;;;;4953099;28;20063;-69
2022/09/04 01:14:17;;;;;;;5.60;2.22;;;17.90;61.70;;;;;;4953542;29;20019;-70
2022/09/04 01:16:42;;;;;;;3.97;1.52;;;17.90;62.10;;;;;;4951996;28;20118;-71
2022/09/04 01:19:23;;;;;;;4.40;1.80;;;17.80;62.30;;;;;;4953027;28;20399;-70
2022/09/04 01:22:15;;;;;;;4.93;1.60;;;17.70;62.60;;;;;;4953060;28;20502;-70
2022/09/04 01:25:13;;;;;;;4.53;1.73;;;17.70;62.70;;;;;;4952565;28;20321;-69
2022/09/04 01:27:48;;;;;;;3.28;1.58;;;17.80;63.20;;;;;;4952814;28;20035;-70
2022/09/04 01:30:17;;;;;;;4.38;2.35;;;17.80;62.60;;;;;;4952927;28;20142;-69
2022/09/04 01:33:13;;;;;;;6.30;2.15;;;17.80;62.40;;;;;;4952990;28;20086;-70
2022/09/04 01:35:43;;;;;;;2.92;1.55;;;17.80;62.90;;;;;;4965452;28;20026;-70
2022/09/04 01:38:16;;;;;;;9.38;2.28;;;17.70;63.00;;;;;;4992074;28;20092;-70
2022/09/04 01:41:12;;;;;;;5.70;2.03;;;17.70;63.00;;;;;;4991635;28;20116;-69
2022/09/04 01:43:38;;;;;;;2.50;1.52;;;17.70;63.10;;;;;;4990553;28;20031;-69
2022/09/04 01:46:23;;;;;;;2.60;1.60;;;17.70;63.00;;;;;;4990257;28;20501;-70
2022/09/04 01:49:12;;;;;;;4.47;1.80;;;17.70;63.40;;;;;;4990338;28;20420;-69
2022/09/04 01:51:38;;;;;;;3.58;2.17;;;17.60;63.50;;;;;;4995478;28;20112;-69
2022/09/04 01:54:29;;;;;;;5.50;1.80;;;17.60;63.70;;;;;;4995335;28;20066;-70
2022/09/04 01:57:13;;;;;;;4.78;1.65;;;17.50;64.40;;;;;;4995444;28;20030;-70
2022/09/04 01:59:51;;;;;;;6.20;1.88;;;17.50;64.00;;;;;;4995342;28;20208;-70
2022/09/04 02:02:41;;;;;;;3.38;2.03;;;17.50;64.00;;;;;;4995784;28;20023;-69
2022/09/04 02:05:19;;;;;;;5.63;1.73;;;17.50;64.40;;;;;;4995301;28;20125;-69
2022/09/04 02:07:50;;;;;;;7.72;2.20;;;17.40;65.00;;;;;;4994502;28;20046;-70
2022/09/04 02:10:40;;;;;;;4.32;1.80;;;17.40;64.60;;;;;;4995108;28;20030;-71
2022/09/04 02:13:35;;;;;;;3.85;1.92;;;17.50;64.60;;;;;;4995156;28;20030;-70
2022/09/04 02:16:32;;;;;;;5.63;1.95;;;17.40;64.80;;;;;;4990057;28;20468;-70
2022/09/04 02:18:59;;;;;;;3.63;1.92;;;17.40;65.20;;;;;;4993808;28;20057;-70
2022/09/04 02:21:30;;;;;;;3.60;1.67;;;17.30;65.60;;;;;;4994950;28;20038;-70
2022/09/04 02:24:07;;;;;;;3.05;1.88;;;17.20;65.90;;;;;;4994950;28;20023;-69
2022/09/04 02:26:58;;;;;;;4.18;1.88;;;17.10;66.20;;;;;;4994904;28;20062;-69
2022/09/04 02:30:02;;;;;;;3.35;1.50;;;17.10;66.20;;;;;;4994702;28;20099;-69
2022/09/04 02:32:38;;;;;;;5.25;2.03;;;17.00;66.30;;;;;;4994875;28;20081;-69
2022/09/04 02:35:10;;;;;;;4.38;2.00;;;17.00;66.80;;;;;;4995533;28;20479;-69
2022/09/04 02:37:39;;;;;;;10.20;2.15;;;17.00;67.00;;;;;;4994911;28;20077;-69
2022/09/04 02:40:23;;;;;;;4.65;1.55;;;17.00;66.90;;;;;;4994725;28;20129;-69
2022/09/04 02:43:22;;;;;;;3.88;1.75;;;17.00;67.10;;;;;;4994609;28;20092;-70
2022/09/04 02:46:25;;;;;;;3.63;1.92;;;17.10;67.30;;;;;;4993503;28;20477;-70
2022/09/04 02:49:13;;;;;;;4.32;2.00;;;17.00;67.30;;;;;;4994472;28;20449;-69
2022/09/04 02:52:10;;;;;;;6.43;1.48;;;17.10;67.40;;;;;;4994574;28;20074;-69
2022/09/04 02:55:23;;;;;;;5.28;1.70;;;17.00;67.30;;;;;;4994389;28;20061;-69
2022/09/04 02:58:18;;;;;;;5.50;2.15;;;17.00;67.40;;;;;;4987219;28;20374;-70
2022/09/04 03:01:01;;;;;;;3.10;1.75;;;17.00;67.80;;;;;;4994213;28;20038;-70
2022/09/04 03:03:36;;;;;;;3.03;1.75;;;17.00;68.00;;;;;;4994105;28;20034;-69
2022/09/04 03:06:12;;;;;;;6.25;2.30;;;16.90;68.30;;;;;;4992976;28;20027;-70
2022/09/04 03:08:52;;;;;;;3.90;1.70;;;16.90;68.20;;;;;;4994029;28;20026;-69
2022/09/04 03:11:44;;;;;;;7.22;2.00;;;16.90;68.40;;;;;;4994214;28;20038;-70
2022/09/04 03:14:34;;;;;;;4.07;1.85;;;16.90;68.50;;;;;;4988723;28;20112;-70
2022/09/04 03:17:24;;;;;;;5.65;1.80;;;16.90;68.90;;;;;;4993930;28;20043;-69
2022/09/04 03:20:17;;;;;;;8.07;2.75;;;16.80;68.90;;;;;;4994330;28;20110;-69
2022/09/04 03:23:16;;;;;;;5.50;2.05;;;16.80;69.00;;;;;;4989277;28;20034;-70
2022/09/04 03:26:00;;;;;;;6.95;1.80;;;16.80;69.10;;;;;;4993652;28;20041;-69
2022/09/04 03:28:44;;;;;;;4.65;2.20;;;16.70;69.60;;;;;;4993935;28;20037;-69
2022/09/04 03:31:24;;;;;;;4.25;2.10;;;16.60;70.10;;;;;;4993747;28;20496;-69
2022/09/04 03:34:02;;;;;;;4.45;2.25;;;16.40;70.80;;;;;;4993805;28;20117;-69
2022/09/04 03:36:53;;;;;;;5.22;2.00;;;16.40;70.90;;;;;;5008989;28;20040;-69
2022/09/04 03:39:26;;;;;;;4.57;1.98;;;16.40;71.30;;;;;;4993441;28;20038;-70
2022/09/04 03:42:04;;;;;;;7.38;3.10;;;16.30;71.30;;;;;;4992412;28;20353;-68
2022/09/04 03:44:49;;;;;;;3.45;2.13;;;16.30;71.80;;;;;;4993713;28;20460;-69
2022/09/04 03:47:27;;;;;;;5.35;1.80;;;16.40;71.30;;;;;;4992838;28;20363;-71
2022/09/04 03:49:58;;;;;;;7.65;1.95;;;16.50;71.30;;;;;;4993726;28;20073;-69
2022/09/04 03:52:44;;;;;;;4.20;1.92;;;16.50;71.30;;;;;;4993397;28;20046;-70
2022/09/04 03:55:37;;;;;;;4.68;2.15;;;16.50;70.90;;;;;;4993252;28;20030;-70
2022/09/04 03:58:35;;;;;;;9.43;2.38;;;16.50;71.50;;;;;;4993170;28;20030;-69
2022/09/04 04:01:17;;;;;;;3.60;2.00;;;16.40;71.90;;;;;;4993339;28;20035;-71
2022/09/04 04:03:45;;;;;;;11.00;2.70;;;16.30;72.60;;;;;;4993105;28;20034;-71
2022/09/04 04:06:43;;;;;;;3.25;2.00;;;16.10;73.10;;;;;;4993360;28;20054;-69
2022/09/04 04:09:17;;;;;;;4.85;1.77;;;16.10;73.50;;;;;;4980515;28;20366;-69
2022/09/04 04:12:11;;;;;;;5.45;1.92;;;16.10;74.10;;;;;;4992134;28;20101;-69
2022/09/04 04:15:05;;;;;;;3.90;2.20;;;16.20;73.50;;;;;;4992820;28;20061;-69
2022/09/04 04:18:18;;;;;;;5.30;2.10;;;16.20;73.70;;;;;;4992752;28;20030;-69
2022/09/04 04:20:53;;;;;;;4.18;1.90;;;16.10;74.00;;;;;;4990625;28;20049;-69
2022/09/04 04:23:56;;;;;;;5.63;2.05;;;16.10;74.40;;;;;;4993250;28;20095;-70
2022/09/04 04:26:40;;;;;;;3.92;2.00;;;16.10;74.00;;;;;;4992447;28;20461;-70
2022/09/04 04:29:28;;;;;;;7.10;2.00;;;16.00;74.70;;;;;;4993015;28;20448;-69
2022/09/04 04:32:12;;;;;;;7.18;2.03;;;16.00;74.60;;;;;;4992596;28;20066;-69
2022/09/04 04:35:02;;;;;;;3.00;2.00;;;15.90;75.30;;;;;;4992804;28;20188;-69
2022/09/04 04:37:55;;;;;;;3.40;1.65;;;16.00;75.20;;;;;;4992784;28;20395;-68
2022/09/04 04:40:52;;;;;;;4.18;1.90;;;15.90;75.60;;;;;;4992492;28;20026;-69
2022/09/04 04:43:55;;;;;;;3.40;1.93;;;15.90;75.90;;;;;;4992387;28;20361;-69
2022/09/04 04:46:41;;;;;;;12.90;1.80;;;15.90;75.60;;;;;;4983222;28;20030;-70
2022/09/04 04:49:51;;;;;;;3.97;2.15;;;16.00;76.20;;;;;;4992502;28;20042;-68
2022/09/04 04:52:31;;;;;;;4.55;2.10;;;16.00;75.70;;;;;;4990585;28;20116;-69
2022/09/04 04:55:09;;;;;;;5.72;2.00;;;16.00;75.70;;;;;;4992161;28;20031;-69
2022/09/04 04:57:59;;;;;;;4.55;1.80;;;16.00;75.80;;;;;;4992169;28;20042;-68
2022/09/04 05:00:39;;;;;;;4.28;2.35;;;16.00;76.00;;;;;;4991784;28;20117;-69
2022/09/04 05:03:20;;;;;;;6.95;2.10;;;16.00;76.10;;;;;;4991869;28;20058;-69
2022/09/04 05:06:00;;;;;;;4.25;1.88;;;16.00;76.10;;;;;;4991658;28;20080;-69
2022/09/04 05:08:42;;;;;;;4.13;1.80;;;16.00;76.90;;;;;;4991885;28;20365;-69
2022/09/04 05:11:36;;;;;;;4.63;2.05;;;16.00;76.80;;;;;;4992162;28;20042;-70
2022/09/04 05:14:35;;;;;;;6.57;2.40;;;16.00;77.10;;;;;;4991677;28;20389;-69
2022/09/04 05:17:34;;;;;;;3.25;1.92;;;16.00;77.20;;;;;;4991983;28;20077;-69
2022/09/04 05:20:54;;;;;;;3.38;2.25;;;16.00;77.30;;;;;;4991884;28;20033;-69
2022/09/04 05:23:40;;;;;;;4.03;2.25;;;15.90;77.00;;;;;;4950305;28;20133;-69
2022/09/04 05:26:13;;;;;;;7.75;2.47;;;16.00;78.00;;;;;;4986938;28;20456;-69
2022/09/04 05:29:04;;;;;;;5.78;2.00;;;16.00;77.90;;;;;;4990517;28;20468;-69
2022/09/04 05:31:51;;;;;;;2.03;1.63;;;16.00;77.70;;;;;;4991467;28;20385;-70
2022/09/04 05:34:26;;;;;;;;;;;16.10;77.50;;;;;;4990911;28;20149;-73
2022/09/04 05:37:24;;;;;;;5.35;2.42;;;16.10;77.70;;;;;;4991415;28;20318;-68
2022/09/04 05:40:11;;;;;;;4.47;2.00;;;16.10;77.80;;;;;;4990176;28;20044;-70
2022/09/04 05:43:08;;;;;;;3.57;2.30;;;16.20;77.90;;;;;;4991390;28;20551;-69
2022/09/04 05:45:51;;;;;;;4.13;2.03;;;16.20;78.20;;;;;;4987167;28;20027;-70
2022/09/04 05:48:43;;;;;;;3.47;2.22;;;16.20;77.90;;;;;;4991791;28;20058;-69
2022/09/04 05:51:27;;;;;;;5.10;1.90;;;16.20;78.30;;;;;;4991184;28;20053;-70
2022/09/04 05:54:16;;;;;;;6.88;2.53;;;16.30;78.30;;;;;;4991107;28;20027;-69
2022/09/04 05:57:10;;;;;;;6.60;2.35;;;16.30;78.40;;;;;;4991196;28;20523;-70
2022/09/04 05:59:56;;;;;;;5.50;2.10;;;16.40;78.40;;;;;;4989608;28;20034;-69
2022/09/04 06:02:33;;;;;;;4.50;2.20;;;16.40;78.60;;;;;;4990118;28;20112;-70
2022/09/04 06:05:18;;;;;;;14.75;2.70;;;16.40;78.30;;;;;;4991726;28;20373;-69
2022/09/04 06:08:21;;;;;;;5.93;1.98;;;16.40;78.80;;;;;;4991344;28;20034;-70
2022/09/04 06:11:07;;;;;;;4.95;2.50;;;16.40;79.10;;;;;;4991187;28;20050;-70
2022/09/04 06:13:52;;;;;;;6.43;2.38;;;16.40;79.30;;;;;;4991028;28;20049;-68
2022/09/04 06:16:56;;;;;;;8.93;2.40;;;16.50;79.30;;;;;;4991076;28;20045;-70
2022/09/04 06:19:48;;;;;;;4.53;2.40;;;16.60;79.10;;;;;;4970457;28;20035;-72
2022/09/04 06:22:41;;;;;;;3.95;1.85;;;16.60;78.80;;;;;;4981960;28;20057;-70
2022/09/04 06:25:28;;;;;;;4.47;2.28;;;16.70;79.00;;;;;;4991274;28;20488;-70
2022/09/04 06:28:06;;;;;;;3.67;2.23;;;16.70;79.00;;;;;;4991195;28;20030;-70
2022/09/04 06:31:16;;;;;;;3.67;2.40;;;16.70;78.80;;;;;;4990095;28;20046;-69
2022/09/04 06:34:09;;;;;;;4.30;2.47;;;16.80;79.10;;;;;;4990243;28;20396;-71
2022/09/04 06:36:59;;;;;;;9.93;3.85;;;16.80;78.80;;;;;;4953961;28;20047;-70
2022/09/04 06:39:39;;;;;;;7.20;2.13;;;16.90;78.90;;;;;;4955812;28;20402;-70
2022/09/04 06:42:26;;;;;;;5.07;2.80;;;16.90;79.00;;;;;;4955934;28;20035;-70
2022/09/04 06:45:00;;;;;;;10.13;2.70;;;16.90;79.60;;;;;;4955781;28;20043;-70
2022/09/04 06:47:34;;;;;;;5.63;2.53;;;17.00;79.30;;;;;;4955804;28;20361;-71
2022/09/04 06:50:26;;;;;;;5.68;2.25;;;17.00;79.90;;;;;;4956120;29;20350;-71
2022/09/04 06:53:25;;;;;;;5.40;2.63;;;17.10;79.60;;;;;;4955654;28;20057;-70
2022/09/04 06:56:06;;;;;;;5.95;2.80;;;17.10;79.80;;;;;;4955317;28;20055;-69
2022/09/04 06:59:00;;;;;;;5.10;2.90;;;17.20;79.70;;;;;;4955381;28;20031;-70
2022/09/04 07:02:03;;;;;;;5.65;2.92;;;17.20;80.30;;;;;;4955335;28;20035;-71
2022/09/04 07:04:59;;;;;;;7.03;2.65;;;17.20;80.30;;;;;;4955390;28;20056;-70
2022/09/04 07:07:46;;;;;;;4.90;2.63;;;17.30;80.60;;;;;;4955265;28;20473;-69
2022/09/04 07:10:16;;;;;;;6.07;2.67;;;17.30;80.60;;;;;;4954939;28;20163;-69
2022/09/04 07:13:09;;;;;;;10.90;3.53;;;17.40;80.90;;;;;;4955106;28;20039;-69
2022/09/04 07:15:41;;;;;;;7.10;3.58;;;17.50;80.80;;;;;;4970148;28;20031;-69
2022/09/04 07:18:31;;;;;;;10.05;3.45;;;17.50;81.10;;;;;;4954923;28;20031;-70
2022/09/04 07:21:23;;;;;;;5.38;2.92;;;17.60;81.10;;;;;;4955004;28;20027;-70
2022/09/04 07:24:01;;;;;;;9.38;3.15;;;17.60;81.00;;;;;;4954929;28;20035;-69
2022/09/04 07:26:48;;;;;;;11.63;4.28;;;17.60;80.80;;;;;;4975239;28;20039;-69
2022/09/04 07:29:38;;;;;;;9.57;3.95;;;17.70;81.00;;;;;;4975183;28;20042;-70
2022/09/04 07:32:07;;;;;;;9.80;3.58;;;17.70;80.70;;;;;;4975081;28;20200;-70
2022/09/04 07:34:52;;;;;;;7.63;3.15;;;17.80;80.90;;;;;;4989617;28;20105;-70
2022/09/04 07:37:38;;;;;;;10.40;4.13;;;17.80;80.80;;;;;;4974228;28;20392;-69
2022/09/04 07:40:04;;;;;;;11.40;3.72;;;17.90;80.30;;;;;;4974239;28;20413;-69
2022/09/04 07:42:54;;;;;;;14.15;3.95;;;18.00;80.30;;;;;;4973946;28;20121;-70
2022/09/04 07:45:37;;;;;;;8.13;3.05;;;18.00;80.80;;;;;;4974043;28;20050;-70
2022/09/04 07:48:20;;;;;;;10.70;3.33;;;18.10;80.60;;;;;;4973100;28;20038;-70
2022/09/04 07:51:03;;;;;;;9.18;3.40;;;18.10;80.90;;;;;;4972956;28;20413;-71
2022/09/04 07:54:03;;;;;;;6.25;3.08;;;18.20;81.00;;;;;;4974137;28;20073;-70
2022/09/04 07:56:29;;;;;;;11.95;3.47;;;18.30;81.00;;;;;;4988703;28;20120;-70
2022/09/04 07:59:29;;;;;;;9.95;3.60;;;18.30;80.80;;;;;;4963330;28;20038;-69
2022/09/04 08:02:01;;;;;;;5.65;3.28;;;18.40;80.00;;;;;;4954658;28;20035;-70
2022/09/04 08:05:09;;;;;;;7.90;3.80;;;18.50;80.40;;;;;;4969451;28;20027;-70
2022/09/04 08:07:38;;;;;;;9.50;3.53;;;18.60;79.90;;;;;;4954259;28;20035;-71
2022/09/04 08:10:30;;;;;;;7.13;3.78;;;18.70;79.50;;;;;;4953961;28;20216;-70
2022/09/04 08:13:17;;;;;;;9.05;3.67;;;18.90;80.20;;;;;;4954314;28;20374;-71
2022/09/04 08:16:04;;;;;;;13.15;3.88;;;19.00;79.70;;;;;;4954265;28;20134;-72
2022/09/04 08:19:05;;;;;;;6.35;3.70;;;19.20;79.50;;;;;;4954045;28;20052;-70
2022/09/04 08:21:41;;;;;;;7.78;3.60;;;19.40;79.10;;;;;;4954280;28;20039;-73
2022/09/04 08:24:21;;;;;;;13.20;3.35;;;19.60;79.10;;;;;;4969333;28;20055;-70
2022/09/04 08:26:59;;;;;;;10.98;3.33;;;19.90;78.80;;;;;;4953567;28;20031;-71
2022/09/04 08:29:38;;;;;;;;;;;20.70;77.60;;;;;;4954429;28;20529;-72
2022/09/04 08:32:21;;;;;;;7.78;3.35;;;21.70;76.10;;;;;;4954577;29;19942;-71
2022/09/04 08:35:20;;;;;;;9.88;3.53;;;23.00;73.40;;;;;;4953959;28;20470;-72
2022/09/04 08:38:11;;;;;;;7.05;3.10;;;24.10;68.30;;;;;;4953728;28;20087;-73
2022/09/04 08:41:06;;;;;;;8.77;3.50;;;24.90;65.10;;;;;;4953563;28;20521;-71
2022/09/04 08:43:50;;;;;;;4.82;3.10;;;26.00;61.70;;;;;;4953559;28;20035;-72
2022/09/04 08:46:38;;;;;;;6.03;3.03;;;26.80;59.60;;;;;;4968612;28;20031;-72
2022/09/04 08:49:30;;;;;;;11.00;3.35;;;27.10;59.90;;;;;;4953517;28;20027;-72
2022/09/04 08:52:20;;;;;;;8.85;3.05;;;27.90;57.60;;;;;;4953657;28;20051;-73
2022/09/04 08:55:10;;;;;;;5.85;3.35;;;28.90;57.60;;;;;;4953496;28;20115;-73
2022/09/04 08:58:14;;;;;;;5.93;4.18;;;29.20;56.00;;;;;;4953454;28;20074;-74
2022/09/04 09:01:02;;;;;;;7.75;3.38;;;28.90;54.10;;;;;;4953464;28;20139;-74
2022/09/04 09:03:36;;;;;;;5.75;3.20;;;29.70;53.90;;;;;;4953424;28;20042;-72
2022/09/04 09:06:08;;;;;;;5.45;2.97;;;30.00;53.00;;;;;;4953454;28;20039;-73
2022/09/04 09:09:04;;;;;;;8.95;3.08;;;30.70;52.10;;;;;;4953407;28;20098;-72
2022/09/04 09:12:01;;;;;;;5.47;3.13;;;31.10;50.50;;;;;;4968107;28;20142;-72
2022/09/04 09:14:45;;;;;;;5.43;3.28;;;32.40;49.50;;;;;;4953010;28;20019;-72
2022/09/04 09:17:42;;;;;;;6.20;2.92;;;33.10;48.60;;;;;;4953224;28;20042;-71
2022/09/04 09:20:25;;;;;;;7.03;3.45;;;33.60;46.90;;;;;;4953191;28;20142;-72
2022/09/04 09:23:16;;;;;;;8.20;3.28;;;33.50;46.30;;;;;;4953045;28;20424;-73
2022/09/04 09:26:07;;;;;;;5.05;2.83;;;33.80;46.70;;;;;;4959279;28;20038;-74
2022/09/04 09:28:53;;;;;;;5.07;3.03;;;34.40;44.00;;;;;;4952913;28;20039;-73
2022/09/04 09:31:51;;;;;;;4.65;3.10;;;34.00;42.90;;;;;;4952786;28;20042;-72
2022/09/04 09:34:28;;;;;;;8.20;3.40;;;34.70;44.10;;;;;;4956066;28;20028;-73
2022/09/04 09:37:08;;;;;;;;;;;34.60;43.80;;;;;;4953163;28;20077;-72
2022/09/04 09:40:12;;;;;;;8.70;3.38;;;34.90;41.90;;;;;;4952576;28;20364;-74
2022/09/04 09:43:16;;;;;;;7.95;3.20;;;35.40;42.30;;;;;;4952467;28;20051;-72
2022/09/04 09:46:14;;;;;;;6.60;3.25;;;34.90;41.50;;;;;;4952669;28;20031;-73
2022/09/04 09:49:10;;;;;;;8.80;3.13;;;35.70;42.20;;;;;;4967235;28;20517;-74
2022/09/04 09:51:54;;;;;;;5.53;2.83;;;35.70;42.00;;;;;;4952469;28;20552;-72
2022/09/04 09:54:31;;;;;;;6.18;2.78;;;36.20;40.60;;;;;;4952534;28;20469;-73
2022/09/04 09:57:23;;;;;;;;;;;35.90;40.80;;;;;;4952965;28;20035;-75
2022/09/04 10:00:04;;;;;;;6.35;3.17;;;36.30;39.10;;;;;;4951516;28;20336;-74
2022/09/04 10:03:08;;;;;;;6.28;2.90;;;35.20;40.10;;;;;;4952308;28;20031;-75
2022/09/04 10:05:57;;;;;;;7.40;3.00;;;35.40;40.80;;;;;;4952627;28;20442;-72
2022/09/04 10:08:44;;;;;;;6.07;3.33;;;37.00;39.40;;;;;;4952367;28;20035;-73
2022/09/04 10:11:41;;;;;;;7.05;3.40;;;37.60;38.20;;;;;;4969617;28;20063;-76
2022/09/04 10:14:24;;;;;;;10.63;3.22;;;37.40;37.40;;;;;;4956761;28;20061;-73
2022/09/04 10:17:11;;;;;;;8.38;3.25;;;36.60;37.90;;;;;;4971199;28;20035;-75
2022/09/04 10:19:50;;;;;;;6.65;2.85;;;35.30;39.30;;;;;;4955980;28;20035;-73
2022/09/04 10:22:42;;;;;;;9.75;3.55;;;36.00;40.10;;;;;;4970665;28;20042;-73
2022/09/04 10:25:22;;;;;;;6.78;2.88;;;36.10;40.30;;;;;;4955684;28;20170;-74
2022/09/04 10:28:17;;;;;;;7.75;2.97;;;36.70;40.00;;;;;;4956001;28;20031;-76
2022/09/04 10:31:06;;;;;;;7.45;3.45;;;37.80;40.30;;;;;;4956049;28;20083;-73
2022/09/04 10:34:02;;;;;;;6.25;2.92;;;38.60;38.80;;;;;;4956002;28;20027;-72
2022/09/04 10:36:51;;;;;;;5.87;3.43;;;38.10;38.70;;;;;;4955857;28;20114;-72
2022/09/04 10:42:48;;;;;;;9.32;2.72;;;38.30;37.90;;;;;;4955671;28;20105;-77
2022/09/04 10:45:37;;;;;;;4.97;3.00;;;38.10;39.10;;;;;;4955697;28;20046;-76
2022/09/04 10:48:41;;;;;;;8.35;2.83;;;38.50;37.00;;;;;;4955794;28;20035;-75
2022/09/04 10:51:33;;;;;;;5.72;3.33;;;37.70;37.30;;;;;;4970688;28;20028;-79
2022/09/04 10:54:20;;;;;;;7.15;3.50;;;35.70;38.00;;;;;;4955773;28;20035;-77
2022/09/04 10:57:20;;;;;;;10.82;3.30;;;35.00;40.40;;;;;;4955485;28;20036;-80
2022/09/04 10:59:52;;;;;;;4.40;2.53;;;37.00;40.90;;;;;;4955274;28;20350;-73
2022/09/04 11:02:45;;;;;;;6.68;3.40;;;36.80;38.30;;;;;;4955874;28;20038;-72
2022/09/04 11:05:17;;;;;;;10.23;3.15;;;36.80;40.50;;;;;;4955250;29;20043;-72
2022/09/04 11:07:58;;;;;;;5.57;2.80;;;36.70;39.90;;;;;;4970337;28;20373;-72
2022/09/04 11:10:44;;;;;;;7.20;3.15;;;37.50;38.30;;;;;;4955076;28;20027;-72
2022/09/04 11:13:22;;;;;;;4.27;2.60;;;36.70;38.40;;;;;;4955249;28;20054;-74
2022/09/04 11:15:51;;;;;;;10.27;3.00;;;35.80;38.90;;;;;;4954874;28;20043;-74
2022/09/04 11:18:46;;;;;;;14.40;2.97;;;35.70;39.70;;;;;;4954738;28;20042;-74
2022/09/04 11:21:57;;;;;;;5.35;2.75;;;34.70;41.00;;;;;;4955343;28;20032;-74
2022/09/04 11:24:58;;;;;;;4.30;2.63;;;34.80;40.10;;;;;;4927191;28;20066;-73
2022/09/04 11:27:33;;;;;;;6.80;2.88;;;34.70;41.00;;;;;;4954895;28;20031;-73
2022/09/04 11:30:10;;;;;;;7.03;2.92;;;33.90;40.40;;;;;;4954935;28;20474;-72
2022/09/04 11:32:57;;;;;;;9.05;3.10;;;32.70;42.00;;;;;;4954681;28;20023;-74
2022/09/04 11:35:55;;;;;;;4.18;2.13;;;32.20;42.90;;;;;;4954695;28;20035;-73
2022/09/04 11:38:47;;;;;;;4.55;2.75;;;32.00;43.20;;;;;;4955509;28;20058;-73
2022/09/04 11:41:34;;;;;;;4.78;2.97;;;31.60;43.60;;;;;;4955148;28;20023;-76
2022/09/04 11:44:33;;;;;;;3.97;2.50;;;31.40;44.60;;;;;;4954653;28;20446;-73
2022/09/04 11:47:36;;;;;;;6.63;3.55;;;31.10;44.40;;;;;;4969530;28;20051;-73
2022/09/04 11:50:16;;;;;;;6.43;2.83;;;30.60;45.30;;;;;;4954451;28;20481;-73
2022/09/04 11:53:01;;;;;;;5.28;2.95;;;30.50;45.40;;;;;;4954665;28;20097;-74
2022/09/04 11:55:52;;;;;;;6.22;2.78;;;30.30;45.60;;;;;;4953895;28;20042;-73
2022/09/04 11:58:53;;;;;;;6.55;2.90;;;29.90;45.90;;;;;;4954066;28;20046;-73
2022/09/04 12:01:25;;;;;;;8.63;2.78;;;29.70;46.70;;;;;;4968723;28;20101;-72
2022/09/04 12:03:54;;;;;;;3.60;2.60;;;29.50;46.40;;;;;;4954088;28;20062;-72
2022/09/04 12:06:50;;;;;;;8.10;3.10;;;29.30;47.10;;;;;;4954264;28;20055;-72
2022/09/04 12:10:03;;;;;;;6.00;2.53;;;29.00;47.50;;;;;;4962544;28;20378;-71
2022/09/04 12:12:50;;;;;;;7.18;3.17;;;28.80;47.70;;;;;;4963171;28;20146;-70
2022/09/04 12:15:59;;;;;;;4.65;2.60;;;28.80;48.50;;;;;;4953964;28;20481;-73
2022/09/04 12:19:13;;;;;;;6.82;2.88;;;28.90;48.30;;;;;;4953779;28;20122;-72
2022/09/04 12:22:13;;;;;;;7.63;3.28;;;29.00;47.80;;;;;;4953975;28;20374;-72
2022/09/04 12:24:47;;;;;;;8.75;3.25;;;28.50;48.10;;;;;;4953866;28;20479;-73
2022/09/04 12:27:44;;;;;;;10.23;2.92;;;28.70;48.50;;;;;;4954001;28;20043;-73
2022/09/04 12:30:19;;;;;;;7.25;2.47;;;28.70;48.40;;;;;;4954043;28;20031;-73
2022/09/04 12:32:58;;;;;;;4.43;2.55;;;28.70;48.20;;;;;;4968486;28;20259;-71
2022/09/04 12:35:41;;;;;;;7.25;2.53;;;28.50;48.30;;;;;;4952535;28;20042;-72
2022/09/04 12:38:46;;;;;;;4.30;2.38;;;28.30;48.60;;;;;;4954423;28;20446;-73
2022/09/04 12:41:28;;;;;;;5.85;2.72;;;28.20;48.90;;;;;;4954057;28;20039;-74
2022/09/04 12:44:10;;;;;;;6.35;2.60;;;28.20;49.20;;;;;;4953926;28;20298;-75
2022/09/04 12:46:57;;;;;;;3.00;2.40;;;28.30;49.30;;;;;;4954142;28;20028;-76
2022/09/04 12:49:50;;;;;;;8.13;2.85;;;28.20;49.00;;;;;;4954073;28;20043;-74
2022/09/04 12:52:50;;;;;;;7.82;2.55;;;28.00;49.50;;;;;;4953774;28;20039;-75
2022/09/04 12:55:21;;;;;;;4.82;2.42;;;28.00;49.50;;;;;;4967426;28;20403;-73
2022/09/04 12:57:59;;;;;;;10.65;2.65;;;28.10;49.60;;;;;;4953864;28;20043;-73
2022/09/04 13:00:39;;;;;;;8.20;2.75;;;28.00;50.50;;;;;;4953625;28;20111;-74
2022/09/04 13:03:24;;;;;;;7.85;2.70;;;27.90;50.10;;;;;;4968264;28;20037;-77
2022/09/04 13:06:28;;;;;;;3.58;2.55;;;28.00;50.20;;;;;;4953532;28;20135;-76
2022/09/04 13:09:25;;;;;;;6.30;3.45;;;28.00;50.20;;;;;;4962027;28;20074;-76
2022/09/04 13:12:30;;;;;;;5.50;2.50;;;27.90;50.10;;;;;;4956099;28;20047;-76
2022/09/04 13:15:32;;;;;;;8.73;2.60;;;28.00;49.80;;;;;;4953392;28;20035;-77
2022/09/04 13:18:10;;;;;;;8.75;5.45;;;27.70;50.60;;;;;;4958237;28;20074;-76
2022/09/04 13:20:54;;;;;;;;;;;27.80;50.50;;;;;;4953596;28;20290;-77
2022/09/04 13:23:22;;;;;;;6.03;2.70;;;27.80;50.10;;;;;;4953001;28;19966;-74
2022/09/04 13:25:54;;;;;;;6.57;3.55;;;27.70;50.20;;;;;;4968509;28;20051;-77
2022/09/04 13:28:44;;;;;;;9.23;2.88;;;27.50;50.60;;;;;;4967988;28;20478;-78
2022/09/04 13:31:18;;;;;;;3.72;2.90;;;27.50;50.70;;;;;;4953326;28;20090;-76
2022/09/04 13:34:12;;;;;;;5.80;3.40;;;27.50;51.00;;;;;;4968265;28;20028;-77
2022/09/04 13:36:53;;;;;;;6.22;2.33;;;27.50;50.90;;;;;;4953062;28;20043;-78
2022/09/04 13:39:59;;;;;;;4.18;2.13;;;27.50;51.00;;;;;;4952918;28;20316;-78
2022/09/04 13:42:26;;;;;;;17.90;2.78;;;27.50;50.80;;;;;;4961004;28;20130;-78
2022/09/04 13:45:27;;;;;;;7.72;2.75;;;27.50;51.00;;;;;;4952233;28;20039;-78
2022/09/04 13:47:53;;;;;;;3.35;2.42;;;27.50;51.20;;;;;;4955494;28;20046;-79
2022/09/04 13:50:40;;;;;;;5.20;2.47;;;27.40;51.00;;;;;;4968167;28;20039;-78
2022/09/04 13:53:27;;;;;;;4.47;2.33;;;27.40;51.20;;;;;;4967978;28;20262;-78
2022/09/04 13:55:58;;;;;;;5.33;2.83;;;27.30;51.30;;;;;;4952765;28;20462;-76
2022/09/04 13:58:32;;;;;;;5.78;2.15;;;27.30;51.40;;;;;;4967762;28;20036;-78
2022/09/04 14:01:01;;;;;;;5.43;2.38;;;27.20;51.40;;;;;;4952795;28;20425;-78
2022/09/04 14:03:33;;;;;;;3.72;2.55;;;27.20;51.30;;;;;;4952519;28;20046;-77
2022/09/04 14:06:01;;;;;;;6.18;2.70;;;27.20;51.60;;;;;;4952639;28;20027;-77
2022/09/04 14:08:29;;;;;;;6.32;2.13;;;27.20;51.60;;;;;;4952644;28;20106;-78
2022/09/04 14:11:06;;;;;;;4.35;2.20;;;27.20;51.60;;;;;;4967712;28;20274;-77
2022/09/04 14:14:19;;;;;;;3.35;2.10;;;27.20;51.60;;;;;;4952772;28;20051;-77
2022/09/04 14:16:48;;;;;;;4.30;1.90;;;27.20;51.30;;;;;;4952409;29;20406;-77
2022/09/04 14:19:46;;;;;;;3.58;2.10;;;27.20;51.40;;;;;;4952598;28;20028;-79
2022/09/04 14:22:31;;;;;;;4.40;2.00;;;27.20;51.50;;;;;;4952465;28;20042;-77
2022/09/04 14:25:41;;;;;;;4.70;2.30;;;27.20;51.60;;;;;;4952500;28;20445;-76
2022/09/04 14:28:26;;;;;;;4.45;1.98;;;27.10;51.70;;;;;;4960480;28;20127;-77
2022/09/04 14:31:30;;;;;;;5.85;1.90;;;27.10;52.00;;;;;;4952671;28;20064;-78
2022/09/04 14:34:15;;;;;;;7.28;2.20;;;27.00;51.90;;;;;;4966905;28;20131;-77